CheckWX is a tool to help pilots better visualize weather data.  It is not intended as a substitute for an official pre-flight weather briefing.

05:14:51 UTC

KDVN METAR
Davenport Municipal Airport
Davenport, Iowa, USA
Current

23 mins ago

KDVN 240452Z AUTO 21008KT 7SM FEW070 BKN080 BKN100 04/03 A2930 RMK AO2 SLP924 T00440033
Observed
Feb-24 @ 04:52 UTC
Wind
  • 210° at 8 KTS
Visibility
7 SM
Flight Rules
VFR
Cloud Levels
  • Few at 7,000' AGL
  • Broken at 8,000' AGL
  • Broken at 10,000' AGL
Temperature
C / 39°F
Dewpoint
C / 37°F
Humidity
93%
Altimeter
29.3" Hg
Pressure
992.4 hPa
Previous

42 mins ago

KDVN 240433Z AUTO 20008KT 6SM BR SCT005 04/03 A2932 RMK AO2 T00440033
Observed
Feb-24 @ 04:33 UTC
Wind
  • 200° at 8 KTS
Visibility
6 SM
Flight Rules
VFR
Conditions
Mist
Cloud Levels
  • Scattered at 500' AGL
Temperature
C / 39°F
Dewpoint
C / 37°F
Humidity
93%
Altimeter
29.32" Hg
Pressure
992.92 hPa
Previous

60 mins ago

KDVN 240415Z AUTO 22009KT 7SM BKN005 04/03 A2934 RMK AO2 T00440033
Observed
Feb-24 @ 04:15 UTC
Wind
  • 220° at 9 KTS
Visibility
7 SM
Flight Rules
IFR
Cloud Levels
  • Broken at 500' AGL
Temperature
C / 39°F
Dewpoint
C / 37°F
Humidity
93%
Altimeter
29.34" Hg
Pressure
993.52 hPa